512  
SHUS65 KGJT 112017  
FWOGJT  
 
DAILY FIRE WEATHER OBSERVATION  
NATIONAL WEATHER SERVICE GRAND JUNCTION CO  
215 PM MDT SUN APR 11 2021  
 
STATE OF THE WEATHER (W) 0  
DRY BULB TEMPERATURE 72 DEGREES FAHRENHEIT  
RELATIVE HUMIDITY (RH) 8 PERCENT  
LIGHTNING ACTIVITY LEVEL  
(LAL - MIDNIGHT TO 2 PM) 1  
WIND DIRECTION 270 DEGREES (C IF CALM)  
WIND SPEED 13 MPH  
MAX TEMP (2 PM - 2 PM) 72 DEGREES FAHRENHEIT  
MIN TEMP (2 PM - 2 PM) 36 DEGREES FAHRENHEIT  
MAX RH (2 PM - 2 PM) 28 PERCENT  
MIN RH (2 PM - 2 PM) 7 PERCENT  
PCPN DURATION 0.0 HOURS  
PCPN AMT (2 PM - 2 PM) 0.0 INCHES  
LAL (2 PM - 2 PM) 1  
 

 
 
METAR KGJT 111953Z 28011G21KT 10SM CLR 22/M14 A2977 RMK AO2  
SLP033 T02221139  
 
CLICK HERE TO GO TO PREVIOUS BULLETINS.

The Nexlab CO Page
The Nexlab UT Page Main Text Page